Time;durP1;ratioP1;P1;durP2;ratioP2;P2;SDS_P1;SDS_P2;PMS_P1;PMS_P2;Temp;Humidity;BMP_temperature;BMP_pressure;BME280_temperature;BME280_humidity;BME280_pressure;Samples;Min_cycle;Max_cycle;Signal;HPM_P1;HPM_P2
2021/11/24 00:03:12;;;;;;;;;;;2.60;99.90;;;;;;8430235;28;20324;-65
2021/11/24 00:07:12;;;;;;;;;;;2.50;99.90;;;;;;8430508;28;19919;-65
2021/11/24 00:11:13;;;;;;;;;;;2.60;99.90;;;;;;8420555;28;19912;-64
2021/11/24 00:15:14;;;;;;;;;;;2.70;99.90;;;;;;8412188;28;19934;-65
2021/11/24 00:19:14;;;;;;;;;;;2.70;99.90;;;;;;8430219;28;19909;-65
2021/11/24 00:23:14;;;;;;;;;;;2.70;99.90;;;;;;8411550;28;20467;-65
2021/11/24 00:27:15;;;;;;;;;;;2.70;99.90;;;;;;8429713;28;20313;-65
2021/11/24 00:31:15;;;;;;;;;;;2.70;99.90;;;;;;8429481;28;19924;-65
2021/11/24 00:35:16;;;;;;;;;;;2.60;99.90;;;;;;8411206;28;19908;-65
2021/11/24 00:39:16;;;;;;;;;;;2.70;99.90;;;;;;8427361;28;19955;-65
2021/11/24 00:43:17;;;;;;;;;;;2.80;99.90;;;;;;8421104;28;19908;-65
2021/11/24 00:47:18;;;;;;;;;;;2.70;99.90;;;;;;8428924;28;19996;-65
2021/11/24 00:51:18;;;;;;;;;;;2.70;99.90;;;;;;8410866;28;20006;-65
2021/11/24 00:55:19;;;;;;;;;;;2.80;99.90;;;;;;8429595;28;19912;-65
2021/11/24 00:59:19;;;;;;;;;;;2.90;99.90;;;;;;8428883;28;19961;-65
2021/11/24 01:03:19;;;;;;;;;;;2.90;99.90;;;;;;8410228;28;19908;-65
2021/11/24 01:07:21;;;;;;;;;;;2.90;99.90;;;;;;8428613;28;19919;-65
2021/11/24 01:11:22;;;;;;;;;;;2.70;99.90;;;;;;8415890;28;19912;-65
2021/11/24 01:15:22;;;;;;;;;;;2.70;99.90;;;;;;8414977;28;19920;-65
2021/11/24 01:19:23;;;;;;;;;;;2.70;99.90;;;;;;8420557;28;19976;-64
2021/11/24 01:23:23;;;;;;;;;;;2.70;99.90;;;;;;8410159;28;19909;-65
2021/11/24 01:27:24;;;;;;;;;;;2.80;99.90;;;;;;8410492;28;19916;-65
2021/11/24 01:31:24;;;;;;;;;;;2.90;99.90;;;;;;8397459;28;20195;-65
2021/11/24 01:35:25;;;;;;;;;;;2.80;99.90;;;;;;8393622;28;19913;-65
2021/11/24 01:39:25;;;;;;;;;;;2.80;99.90;;;;;;8402426;28;19909;-65
2021/11/24 01:43:26;;;;;;;;;;;2.90;99.90;;;;;;8420022;28;19920;-65
2021/11/24 01:47:26;;;;;;;;;;;2.80;99.90;;;;;;8426242;28;19919;-65
2021/11/24 01:51:27;;;;;;;;;;;2.70;99.90;;;;;;8425958;28;20388;-65
2021/11/24 01:55:27;;;;;;;;;;;2.60;99.90;;;;;;8426537;28;19912;-65
2021/11/24 01:59:28;;;;;;;;;;;2.80;99.90;;;;;;8402749;28;19908;-65
2021/11/24 02:03:28;;;;;;;;;;;2.70;99.90;;;;;;8406145;28;19908;-65
2021/11/24 02:07:29;;;;;;;;;;;2.70;99.90;;;;;;8402571;28;19951;-65
2021/11/24 02:11:30;;;;;;;;;;;2.70;99.90;;;;;;8387655;28;20401;-65
2021/11/24 02:15:30;;;;;;;;;;;2.60;99.90;;;;;;8398844;28;19908;-64
2021/11/24 02:19:31;;;;;;;;;;;2.50;99.90;;;;;;8409122;28;19997;-65
2021/11/24 02:23:32;;;;;;;;;;;2.50;99.90;;;;;;8407741;28;20361;-64
2021/11/24 02:27:32;;;;;;;;;;;2.50;99.90;;;;;;8426483;28;19912;-65
2021/11/24 02:31:33;;;;;;;;;;;2.50;99.90;;;;;;8424018;28;20007;-65
2021/11/24 02:35:33;;;;;;;;;;;2.60;99.90;;;;;;8390176;28;19919;-65
2021/11/24 02:39:34;;;;;;;;;;;2.60;99.90;;;;;;8419365;28;19908;-65
2021/11/24 02:43:34;;;;;;;;;;;2.70;99.90;;;;;;8426112;28;20153;-65
2021/11/24 02:47:36;;;;;;;;;;;2.70;99.90;;;;;;8430238;28;19957;-65
2021/11/24 02:51:37;;;;;;;;;;;2.80;99.90;;;;;;8433087;28;19922;-65
2021/11/24 02:55:38;;;;;;;;;;;2.80;99.90;;;;;;8432721;28;19908;-65
2021/11/24 02:59:38;;;;;;;;;;;2.80;99.90;;;;;;8432537;28;19912;-65
2021/11/24 03:03:39;;;;;;;;;;;2.70;99.90;;;;;;8413420;28;19912;-65
2021/11/24 03:07:39;;;;;;;;;;;2.70;99.90;;;;;;8432498;28;20015;-65
2021/11/24 03:11:40;;;;;;;;;;;2.80;99.90;;;;;;8432003;28;19908;-65
2021/11/24 03:15:40;;;;;;;;;;;2.80;99.90;;;;;;8432218;28;19908;-65
2021/11/24 03:19:41;;;;;;;;;;;2.70;99.90;;;;;;8431795;28;20365;-65
2021/11/24 03:23:41;;;;;;;;;;;2.70;99.90;;;;;;8431936;28;19908;-65
2021/11/24 03:27:42;;;;;;;;;;;2.60;99.90;;;;;;8413434;28;20365;-65
2021/11/24 03:31:43;;;;;;;;;;;2.70;99.90;;;;;;8413199;28;19915;-65
2021/11/24 03:35:43;;;;;;;;;;;2.70;99.90;;;;;;8451857;22;20005;-66
2021/11/24 03:39:44;;;;;;;;;;;2.90;99.90;;;;;;8429712;28;19916;-65
2021/11/24 03:43:45;;;;;;;;;;;2.80;99.90;;;;;;8431392;28;19908;-65
2021/11/24 03:47:45;;;;;;;;;;;2.80;99.90;;;;;;8430365;28;19926;-65
2021/11/24 03:51:46;;;;;;;;;;;2.70;99.90;;;;;;8430909;28;20294;-65
2021/11/24 03:55:46;;;;;;;;;;;2.80;99.90;;;;;;8430401;28;19915;-66
2021/11/24 03:59:47;;;;;;;;;;;2.70;99.90;;;;;;8430633;28;19908;-66
2021/11/24 04:03:49;;;;;;;;;;;2.70;99.90;;;;;;8428623;28;20377;-66
2021/11/24 04:07:49;;;;;;;;;;;2.80;99.90;;;;;;8429995;28;20117;-66
2021/11/24 04:11:50;;;;;;;;;;;2.80;99.90;;;;;;8430315;28;19908;-66
2021/11/24 04:15:51;;;;;;;;;;;2.80;99.90;;;;;;8411343;28;20344;-66
2021/11/24 04:19:51;;;;;;;;;;;2.90;99.90;;;;;;8428876;28;19908;-66
2021/11/24 04:23:52;;;;;;;;;;;2.90;99.90;;;;;;8430183;28;19961;-66
2021/11/24 04:27:52;;;;;;;;;;;2.90;99.90;;;;;;8415270;28;19916;-66
2021/11/24 04:31:53;;;;;;;;;;;2.80;99.90;;;;;;8392974;28;19939;-66
2021/11/24 04:35:54;;;;;;;;;;;2.90;99.90;;;;;;8412864;28;20344;-66
2021/11/24 04:39:54;;;;;;;;;;;2.70;99.90;;;;;;8414534;28;19912;-66
2021/11/24 04:43:55;;;;;;;;;;;2.60;99.90;;;;;;8402178;28;20348;-66
2021/11/24 04:47:55;;;;;;;;;;;2.60;99.90;;;;;;8395396;28;19912;-66
2021/11/24 04:51:55;;;;;;;;;;;2.60;99.90;;;;;;8395375;28;20429;-66
2021/11/24 04:55:56;;;;;;;;;;;2.50;99.90;;;;;;8396097;28;19948;-66
2021/11/24 04:59:57;;;;;;;;;;;2.50;99.90;;;;;;8394735;28;20003;-65
2021/11/24 05:03:57;;;;;;;;;;;2.40;99.90;;;;;;8398236;28;19919;-66
2021/11/24 05:07:58;;;;;;;;;;;2.30;99.90;;;;;;8401082;28;19961;-65
2021/11/24 05:11:59;;;;;;;;;;;2.20;99.90;;;;;;8428074;28;19908;-66
2021/11/24 05:16:03;;;;;;;;;;;2.20;99.90;;;;;;8428725;28;19909;-66
2021/11/24 05:20:05;;;;;;;;;;;2.20;99.90;;;;;;8428361;28;19916;-65
2021/11/24 05:24:06;;;;;;;;;;;2.20;99.90;;;;;;8409325;28;19916;-66
2021/11/24 05:28:06;;;;;;;;;;;2.20;99.90;;;;;;8428190;28;20449;-66
2021/11/24 05:32:07;;;;;;;;;;;2.20;99.90;;;;;;8423640;28;19927;-66
2021/11/24 05:36:07;;;;;;;;;;;2.20;99.90;;;;;;8406931;28;19916;-65
2021/11/24 05:40:08;;;;;;;;;;;2.20;99.90;;;;;;8427144;28;19908;-66
2021/11/24 05:44:48;;;;;;;;;;;2.20;99.90;;;;;;8427638;28;20326;-66
2021/11/24 05:48:39;;;;;;;;;;;2.00;99.90;;;;;;8423962;28;19956;-65
2021/11/24 05:52:40;;;;;;;;;;;2.10;99.90;;;;;;8426773;28;19908;-66
2021/11/24 05:56:41;;;;;;;;;;;2.10;99.90;;;;;;8426762;28;19912;-66
2021/11/24 06:00:41;;;;;;;;;;;2.10;99.90;;;;;;8425449;28;20397;-66
2021/11/24 06:04:41;;;;;;;;;;;2.10;99.90;;;;;;8421751;28;20378;-66
2021/11/24 06:08:42;;;;;;;;;;;2.10;99.90;;;;;;8421744;28;20309;-66
2021/11/24 06:12:43;;;;;;;;;;;2.10;99.90;;;;;;8426401;28;19916;-66
2021/11/24 06:16:43;;;;;;;;;;;2.20;99.90;;;;;;8418556;28;20053;-66
2021/11/24 06:20:44;;;;;;;;;;;2.00;99.90;;;;;;8408916;28;19916;-66
2021/11/24 06:24:44;;;;;;;;;;;2.00;99.90;;;;;;8409224;28;20015;-66
2021/11/24 06:28:45;;;;;;;;;;;2.10;99.90;;;;;;8392520;28;19916;-68
2021/11/24 06:32:46;;;;;;;;;;;2.10;99.90;;;;;;8392900;28;19999;-68
2021/11/24 06:36:46;;;;;;;;;;;2.20;99.90;;;;;;8390851;28;20407;-68
2021/11/24 06:40:47;;;;;;;;;;;2.10;99.90;;;;;;8406198;28;19995;-68
2021/11/24 06:44:47;;;;;;;;;;;2.00;99.90;;;;;;8397152;28;19975;-65
2021/11/24 06:48:48;;;;;;;;;;;2.10;99.90;;;;;;8411938;28;20374;-65
2021/11/24 06:52:48;;;;;;;;;;;2.20;99.90;;;;;;8402901;28;19916;-65
2021/11/24 06:56:49;;;;;;;;;;;2.30;99.90;;;;;;8404607;28;20520;-65
2021/11/24 07:00:49;;;;;;;;;;;2.30;99.90;;;;;;8394212;28;20007;-65
2021/11/24 07:04:50;;;;;;;;;;;2.30;99.90;;;;;;8407921;28;20423;-65
2021/11/24 07:08:50;;;;;;;;;;;2.30;99.90;;;;;;8405813;28;19924;-65
2021/11/24 07:12:51;;;;;;;;;;;2.20;99.90;;;;;;8410894;28;20012;-65
2021/11/24 07:16:51;;;;;;;;;;;2.10;99.90;;;;;;8412978;28;19916;-65
2021/11/24 07:20:52;;;;;;;;;;;2.10;99.90;;;;;;8414052;28;20290;-65
2021/11/24 07:24:52;;;;;;;;;;;2.20;99.90;;;;;;8415026;28;19991;-65
2021/11/24 07:28:53;;;;;;;;;;;2.20;99.90;;;;;;8414921;28;19916;-65
2021/11/24 07:32:54;;;;;;;;;;;2.20;99.90;;;;;;8409006;28;19920;-65
2021/11/24 07:36:55;;;;;;;;;;;2.20;99.90;;;;;;8422667;28;20094;-65
2021/11/24 07:40:56;;;;;;;;;;;2.10;99.90;;;;;;8419122;28;20413;-65
2021/11/24 07:44:56;;;;;;;;;;;2.10;99.90;;;;;;8413106;28;19917;-66
2021/11/24 07:48:58;;;;;;;;;;;2.20;99.90;;;;;;8413250;28;19971;-66
2021/11/24 07:52:58;;;;;;;;;;;2.20;99.90;;;;;;8386167;28;20366;-65
2021/11/24 07:56:59;;;;;;;;;;;2.20;99.90;;;;;;8417219;28;19924;-66
2021/11/24 08:00:59;;;;;;;;;;;2.10;99.90;;;;;;8422378;28;19912;-65
2021/11/24 08:05:00;;;;;;;;;;;2.30;99.90;;;;;;8409687;28;20279;-66
2021/11/24 08:09:00;;;;;;;;;;;2.30;99.90;;;;;;8410321;28;19920;-65
2021/11/24 08:13:00;;;;;;;;;;;2.40;99.90;;;;;;8427008;28;20183;-65
2021/11/24 08:17:02;;;;;;;;;;;2.30;99.90;;;;;;8426010;28;20011;-65
2021/11/24 08:21:02;;;;;;;;;;;2.40;99.90;;;;;;8397052;28;20279;-65
2021/11/24 08:25:03;;;;;;;;;;;2.50;99.90;;;;;;8407161;28;19912;-65
2021/11/24 08:29:04;;;;;;;;;;;2.40;99.90;;;;;;8396563;28;19916;-65
2021/11/24 08:33:04;;;;;;;;;;;2.40;99.90;;;;;;8417109;28;19954;-64
2021/11/24 08:37:05;;;;;;;;;;;2.50;99.90;;;;;;8399551;28;19924;-66
2021/11/24 08:41:05;;;;;;;;;;;2.40;99.90;;;;;;8421562;28;19912;-65
2021/11/24 08:45:07;;;;;;;;;;;2.50;99.90;;;;;;8399404;28;20298;-64
2021/11/24 08:49:08;;;;;;;;;;;2.70;99.90;;;;;;8428262;28;20431;-65
2021/11/24 08:53:09;;;;;;;;;;;2.70;99.90;;;;;;8429199;28;20010;-65
2021/11/24 08:57:09;;;;;;;;;;;2.70;99.90;;;;;;8423309;28;19916;-65
2021/11/24 09:01:10;;;;;;;;;;;2.70;99.90;;;;;;8407874;28;19935;-66
2021/11/24 09:05:11;;;;;;;;;;;2.60;99.90;;;;;;8410583;28;20057;-65
2021/11/24 09:09:11;;;;;;;;;;;2.60;99.90;;;;;;8398022;28;19916;-65
2021/11/24 09:13:12;;;;;;;;;;;2.60;99.90;;;;;;8410634;28;20389;-65
2021/11/24 09:17:12;;;;;;;;;;;2.60;99.90;;;;;;8413789;28;20520;-65
2021/11/24 09:21:13;;;;;;;;;;;2.40;99.90;;;;;;8428656;28;19912;-64
2021/11/24 09:25:18;;;;;;;;;;;2.50;99.90;;;;;;8416549;28;19912;-65
2021/11/24 09:29:19;;;;;;;;;;;2.50;99.90;;;;;;8409028;28;19920;-65
2021/11/24 09:33:19;;;;;;;;;;;2.60;99.90;;;;;;8420660;28;19955;-66
2021/11/24 09:37:20;;;;;;;;;;;2.60;99.90;;;;;;8423116;22;19925;-63
2021/11/24 09:41:22;;;;;;;;;;;2.90;99.90;;;;;;8414436;28;20326;-63
2021/11/24 09:45:22;;;;;;;;;;;2.60;99.90;;;;;;8397638;28;19912;-63
2021/11/24 09:54:02;;;;;;;;;;;2.40;99.90;;;;;;8382450;28;19919;-63
2021/11/24 09:58:03;;;;;;;;;;;2.20;99.90;;;;;;8372539;28;19908;-63
2021/11/24 10:02:03;;;;;;;;;;;2.30;99.90;;;;;;8393071;28;19917;-63
2021/11/24 10:19:59;;;;;;;;;;;2.50;99.90;;;;;;8389678;28;19927;-64
2021/11/24 10:24:04;;;;;;;;;;;2.60;99.90;;;;;;8393747;28;19913;-63
2021/11/24 10:28:04;;;;;;;;;;;2.80;99.90;;;;;;8395586;28;19916;-64
2021/11/24 10:32:06;;;;;;;;;;;2.80;99.90;;;;;;8393547;28;20046;-63
2021/11/24 10:36:12;;;;;;;;;;;2.90;99.90;;;;;;8391825;28;19970;-64
2021/11/24 10:40:14;;;;;;;;;;;2.70;99.90;;;;;;8377850;28;20389;-63
2021/11/24 10:44:42;;;;;;;;;;;2.60;99.90;;;;;;8391153;28;20004;-64
2021/11/24 10:48:43;;;;;;;;;;;2.60;99.90;;;;;;8379416;28;19923;-64
2021/11/24 10:52:45;;;;;;;;;;;2.80;99.90;;;;;;8392110;28;19908;-64
2021/11/24 10:56:58;;;;;;;;;;;2.90;99.90;;;;;;8373282;28;19959;-64
2021/11/24 11:00:59;;;;;;;;;;;3.10;99.90;;;;;;8375069;28;20283;-64
2021/11/24 11:05:05;;;;;;;;;;;3.00;99.90;;;;;;8388615;28;19909;-64
2021/11/24 11:09:06;;;;;;;;;;;2.90;99.90;;;;;;8396861;28;19912;-63
2021/11/24 11:13:07;;;;;;;;;;;3.10;99.90;;;;;;8398151;28;19909;-64
2021/11/24 11:17:09;;;;;;;;;;;2.90;99.90;;;;;;8373830;28;20306;-64
2021/11/24 11:21:11;;;;;;;;;;;3.00;99.90;;;;;;8393010;28;19913;-63
2021/11/24 11:25:12;;;;;;;;;;;2.70;99.90;;;;;;8379713;28;19913;-63
2021/11/24 11:29:13;;;;;;;;;;;2.40;99.90;;;;;;8395139;28;19917;-62
2021/11/24 11:33:15;;;;;;;;;;;2.30;99.90;;;;;;8396438;28;19915;-63
2021/11/24 11:37:16;;;;;;;;;;;2.40;99.90;;;;;;8368917;28;19920;-63
2021/11/24 11:41:18;;;;;;;;;;;2.70;99.90;;;;;;8396740;28;19931;-63
2021/11/24 11:45:19;;;;;;;;;;;2.80;99.90;;;;;;8397273;28;19908;-63
2021/11/24 11:49:21;;;;;;;;;;;2.90;99.90;;;;;;8392362;28;19952;-63
2021/11/24 11:53:23;;;;;;;;;;;2.80;99.90;;;;;;8396114;28;19912;-63
2021/11/24 11:57:24;;;;;;;;;;;2.70;99.90;;;;;;8394510;28;20015;-64
2021/11/24 12:01:32;;;;;;;;;;;2.60;99.90;;;;;;8376479;28;19980;-63
2021/11/24 12:05:33;;;;;;;;;;;2.70;99.90;;;;;;8380299;28;19979;-63
2021/11/24 12:09:36;;;;;;;;;;;2.80;99.90;;;;;;8379236;28;19917;-62
2021/11/24 12:13:37;;;;;;;;;;;2.50;99.90;;;;;;8396406;28;20195;-63
2021/11/24 12:17:45;;;;;;;;;;;2.60;99.90;;;;;;8395903;28;19912;-63
2021/11/24 12:21:52;;;;;;;;;;;2.60;99.90;;;;;;8395954;28;19908;-63
2021/11/24 12:25:53;;;;;;;;;;;2.80;99.90;;;;;;8397122;28;19909;-62
2021/11/24 12:29:54;;;;;;;;;;;2.70;99.90;;;;;;8395109;28;19919;-63
2021/11/24 12:33:58;;;;;;;;;;;2.60;99.90;;;;;;8378797;28;19909;-63
2021/11/24 12:37:59;;;;;;;;;;;2.70;99.90;;;;;;8378269;28;20277;-63
2021/11/24 12:42:01;;;;;;;;;;;2.70;99.90;;;;;;8395510;28;20247;-63
2021/11/24 12:46:16;;;;;;;;;;;2.80;99.90;;;;;;8396371;28;19916;-63
2021/11/24 12:50:16;;;;;;;;;;;3.00;99.90;;;;;;8386048;28;19913;-63
2021/11/24 12:54:19;;;;;;;;;;;3.10;99.90;;;;;;8372047;28;20294;-63
2021/11/24 12:58:23;;;;;;;;;;;3.00;99.90;;;;;;8387868;28;19919;-63
2021/11/24 13:02:25;;;;;;;;;;;2.70;99.90;;;;;;8388365;28;19908;-63
2021/11/24 13:06:26;;;;;;;;;;;2.60;99.90;;;;;;8391805;28;19916;-63
2021/11/24 13:10:27;;;;;;;;;;;2.50;99.90;;;;;;8376555;28;19912;-63
2021/11/24 13:14:30;;;;;;;;;;;2.60;99.90;;;;;;8393248;28;19961;-63
2021/11/24 13:18:30;;;;;;;;;;;2.80;99.90;;;;;;8386635;28;19915;-63
2021/11/24 13:22:36;;;;;;;;;;;2.80;99.90;;;;;;8391207;28;20363;-63
2021/11/24 13:26:36;;;;;;;;;;;2.80;99.90;;;;;;8394744;28;20337;-63
2021/11/24 13:30:42;;;;;;;;;;;2.80;99.90;;;;;;8394044;28;19917;-63
2021/11/24 13:34:42;;;;;;;;;;;2.60;99.90;;;;;;8394623;28;19914;-63
2021/11/24 13:38:49;;;;;;;;;;;2.50;99.90;;;;;;8393672;28;19916;-63
2021/11/24 13:42:49;;;;;;;;;;;2.60;99.90;;;;;;8373517;28;20347;-63
2021/11/24 13:46:51;;;;;;;;;;;2.50;99.90;;;;;;8390864;28;19915;-63
2021/11/24 13:50:59;;;;;;;;;;;2.30;99.90;;;;;;8393027;28;19924;-63
2021/11/24 13:54:59;;;;;;;;;;;2.20;99.90;;;;;;8400022;28;19919;-64
2021/11/24 13:59:03;;;;;;;;;;;2.30;99.90;;;;;;8391126;28;19971;-63
2021/11/24 14:03:03;;;;;;;;;;;2.50;99.90;;;;;;8395968;28;19920;-63
2021/11/24 14:07:07;;;;;;;;;;;2.50;99.90;;;;;;8373617;28;19934;-63
2021/11/24 14:11:26;;;;;;;;;;;2.60;99.90;;;;;;8368668;28;20283;-64
2021/11/24 14:15:39;;;;;;;;;;;2.50;99.90;;;;;;8389633;28;20264;-64
2021/11/24 14:19:41;;;;;;;;;;;2.70;99.90;;;;;;8375193;28;20298;-64
2021/11/24 14:23:42;;;;;;;;;;;2.50;99.90;;;;;;8392258;28;19999;-63
2021/11/24 14:27:43;;;;;;;;;;;2.60;99.90;;;;;;8394063;28;20001;-63
2021/11/24 14:36:26;;;;;;;;;;;2.60;99.90;;;;;;8381696;28;19923;-66
2021/11/24 14:40:27;;;;;;;;;;;2.50;99.90;;;;;;8382440;28;19912;-64
2021/11/24 14:44:28;;;;;;;;;;;2.50;99.90;;;;;;8419369;28;19942;-64
2021/11/24 14:48:28;;;;;;;;;;;2.50;99.90;;;;;;8398922;28;19981;-64
2021/11/24 14:52:29;;;;;;;;;;;2.40;99.90;;;;;;8409984;28;19991;-63
2021/11/24 14:56:31;;;;;;;;;;;2.40;99.90;;;;;;8392661;28;20038;-63
2021/11/24 15:00:32;;;;;;;;;;;2.40;99.90;;;;;;8395339;28;20057;-64
2021/11/24 15:04:35;;;;;;;;;;;2.30;99.90;;;;;;8393705;28;19920;-63
2021/11/24 15:08:35;;;;;;;;;;;2.40;99.90;;;;;;8400764;28;19922;-64
2021/11/24 15:12:36;;;;;;;;;;;2.40;99.90;;;;;;8385073;28;19913;-64
2021/11/24 15:16:37;;;;;;;;;;;2.30;99.90;;;;;;8398903;28;20024;-63
2021/11/24 15:25:15;;;;;;;;;;;2.30;99.90;;;;;;8393781;28;19931;-63
2021/11/24 15:29:16;;;;;;;;;;;2.10;99.90;;;;;;8395312;28;19952;-64
2021/11/24 15:33:16;;;;;;;;;;;2.10;99.90;;;;;;8400033;28;20188;-63
2021/11/24 15:37:17;;;;;;;;;;;2.10;99.90;;;;;;8409490;22;19967;-65
2021/11/24 15:41:18;;;;;;;;;;;2.00;99.90;;;;;;8413537;28;19916;-66
2021/11/24 15:45:18;;;;;;;;;;;1.90;99.90;;;;;;8418740;28;19939;-65
2021/11/24 15:49:19;;;;;;;;;;;2.00;99.90;;;;;;8416107;28;19931;-65
2021/11/24 15:53:19;;;;;;;;;;;2.00;99.90;;;;;;8435622;28;20011;-64
2021/11/24 15:57:20;;;;;;;;;;;2.00;99.90;;;;;;8450678;28;19918;-66
2021/11/24 16:01:21;;;;;;;;;;;1.90;99.90;;;;;;8421164;28;19917;-66
2021/11/24 16:09:59;;;;;;;;;;;1.90;99.90;;;;;;8404884;28;19923;-65
2021/11/24 16:18:38;;;;;;;;;;;1.90;99.90;;;;;;8407559;28;19919;-66
2021/11/24 16:22:50;;;;;;;;;;;2.00;99.90;;;;;;8415035;28;19912;-66
2021/11/24 16:26:51;;;;;;;;;;;2.00;99.90;;;;;;8414322;28;20308;-65
2021/11/24 16:30:51;;;;;;;;;;;1.80;99.90;;;;;;8413583;28;19923;-65
2021/11/24 16:34:52;;;;;;;;;;;1.90;99.90;;;;;;8421396;28;20385;-66
2021/11/24 16:38:52;;;;;;;;;;;1.80;99.90;;;;;;8447405;28;19938;-65
2021/11/24 16:42:53;;;;;;;;;;;1.90;99.90;;;;;;8458572;28;19920;-66
2021/11/24 16:46:53;;;;;;;;;;;1.90;99.90;;;;;;8449136;28;19962;-66
2021/11/24 16:50:54;;;;;;;;;;;1.90;99.90;;;;;;8449532;28;20270;-66
2021/11/24 16:54:54;;;;;;;;;;;1.90;99.90;;;;;;8416278;28;19920;-67
2021/11/24 16:58:56;;;;;;;;;;;1.90;99.90;;;;;;8419692;28;19943;-65
2021/11/24 17:02:56;;;;;;;;;;;1.90;99.90;;;;;;8425815;28;19960;-66
2021/11/24 17:06:57;;;;;;;;;;;1.90;99.90;;;;;;8422308;28;20278;-66
2021/11/24 17:10:57;;;;;;;;;;;1.90;99.90;;;;;;8409897;28;20431;-66
2021/11/24 17:14:58;;;;;;;;;;;1.80;99.90;;;;;;8416547;28;20385;-66
2021/11/24 17:18:58;;;;;;;;;;;1.80;99.90;;;;;;8412521;28;19912;-66
2021/11/24 17:23:01;;;;;;;;;;;1.80;99.90;;;;;;8402395;28;19920;-66
2021/11/24 17:27:02;;;;;;;;;;;2.00;99.90;;;;;;8407224;28;19926;-67
2021/11/24 17:31:04;;;;;;;;;;;2.00;99.90;;;;;;8419145;28;19955;-66
2021/11/24 17:35:04;;;;;;;;;;;1.90;99.90;;;;;;8420483;28;19923;-67
2021/11/24 17:39:06;;;;;;;;;;;1.80;99.90;;;;;;8412456;28;20382;-66
2021/11/24 17:43:07;;;;;;;;;;;1.70;99.90;;;;;;8404554;28;19921;-66
2021/11/24 17:47:07;;;;;;;;;;;1.80;99.90;;;;;;8385841;28;19912;-66
2021/11/24 17:51:10;;;;;;;;;;;1.90;99.90;;;;;;8390071;28;20027;-66
2021/11/24 17:55:11;;;;;;;;;;;2.00;99.90;;;;;;8413195;28;19912;-67
2021/11/24 17:59:11;;;;;;;;;;;1.90;99.90;;;;;;8409894;28;19916;-66
2021/11/24 18:03:12;;;;;;;;;;;1.90;99.90;;;;;;8403587;28;19931;-66
2021/11/24 18:07:12;;;;;;;;;;;2.00;99.90;;;;;;8410532;28;19943;-66
2021/11/24 18:11:13;;;;;;;;;;;2.00;99.90;;;;;;8406516;28;19924;-66
2021/11/24 18:15:16;;;;;;;;;;;1.90;99.90;;;;;;8388297;28;19915;-66
2021/11/24 18:19:17;;;;;;;;;;;2.00;99.90;;;;;;8395110;28;20364;-66
2021/11/24 18:23:19;;;;;;;;;;;1.90;99.90;;;;;;8404629;28;19916;-67
2021/11/24 18:27:19;;;;;;;;;;;2.10;99.90;;;;;;8413098;28;19923;-67
2021/11/24 18:31:20;;;;;;;;;;;2.10;99.90;;;;;;8405461;28;19927;-67
2021/11/24 18:35:23;;;;;;;;;;;2.00;99.90;;;;;;8402229;28;19922;-66
2021/11/24 18:39:23;;;;;;;;;;;2.00;99.90;;;;;;8401302;28;19924;-65
2021/11/24 18:43:24;;;;;;;;;;;1.80;99.90;;;;;;8408155;28;20417;-66
2021/11/24 18:47:28;;;;;;;;;;;2.00;99.90;;;;;;8433843;28;19937;-66
2021/11/24 18:51:28;;;;;;;;;;;2.00;99.90;;;;;;8419733;28;19924;-66
2021/11/24 18:55:29;;;;;;;;;;;2.00;99.90;;;;;;8418312;28;20495;-66
2021/11/24 18:59:29;;;;;;;;;;;1.90;99.90;;;;;;8414196;28;20655;-66
2021/11/24 19:03:30;;;;;;;;;;;2.00;99.90;;;;;;8421233;28;19916;-67
2021/11/24 19:07:30;;;;;;;;;;;1.90;99.90;;;;;;8403661;28;19916;-66
2021/11/24 19:11:31;;;;;;;;;;;1.80;99.90;;;;;;8419083;28;19980;-66
2021/11/24 19:15:31;;;;;;;;;;;1.80;99.90;;;;;;8422448;28;19942;-66
2021/11/24 19:19:32;;;;;;;;;;;1.90;99.90;;;;;;8397935;28;19912;-66
2021/11/24 19:23:33;;;;;;;;;;;1.80;99.90;;;;;;8403255;28;20363;-66
2021/11/24 19:27:35;;;;;;;;;;;1.80;99.90;;;;;;8409319;28;19916;-65
2021/11/24 19:31:35;;;;;;;;;;;1.80;99.90;;;;;;8420447;28;19926;-65
2021/11/24 19:35:37;;;;;;;;;;;1.70;99.90;;;;;;8425870;28;19920;-65
2021/11/24 19:39:37;;;;;;;;;;;1.70;99.90;;;;;;8425474;28;19927;-66
2021/11/24 19:43:38;;;;;;;;;;;1.70;99.90;;;;;;8425060;28;19912;-66
2021/11/24 19:47:38;;;;;;;;;;;1.70;99.90;;;;;;8424923;28;19916;-66
2021/11/24 19:51:39;;;;;;;;;;;1.60;99.90;;;;;;8409364;28;19916;-67
2021/11/24 19:55:40;;;;;;;;;;;1.50;99.90;;;;;;8424766;28;20259;-66
2021/11/24 19:59:40;;;;;;;;;;;1.50;99.90;;;;;;8425823;28;20007;-66
2021/11/24 20:03:41;;;;;;;;;;;1.60;99.90;;;;;;8424748;28;19947;-66
2021/11/24 20:07:41;;;;;;;;;;;1.60;99.90;;;;;;8418663;28;20382;-66
2021/11/24 20:11:42;;;;;;;;;;;1.60;99.90;;;;;;8400753;28;20005;-66
2021/11/24 20:15:44;;;;;;;;;;;1.60;99.90;;;;;;8412025;28;20003;-66
2021/11/24 20:19:46;;;;;;;;;;;1.70;99.90;;;;;;8392875;28;19986;-66
2021/11/24 20:23:46;;;;;;;;;;;1.80;99.90;;;;;;8425251;28;19947;-67
2021/11/24 20:27:47;;;;;;;;;;;1.70;99.90;;;;;;8422244;28;20504;-66
2021/11/24 20:31:47;;;;;;;;;;;1.60;99.90;;;;;;8422309;28;19916;-65
2021/11/24 20:35:48;;;;;;;;;;;1.60;99.90;;;;;;8422975;28;19920;-66
2021/11/24 20:39:49;;;;;;;;;;;1.50;99.90;;;;;;8420607;28;20037;-65
2021/11/24 20:43:49;;;;;;;;;;;1.60;99.90;;;;;;8448603;28;19927;-66
2021/11/24 20:47:50;;;;;;;;;;;1.60;99.90;;;;;;8450230;28;19915;-65
2021/11/24 20:51:50;;;;;;;;;;;1.60;99.90;;;;;;8456839;28;19915;-67
2021/11/24 20:55:51;;;;;;;;;;;1.60;99.90;;;;;;8441509;28;20314;-65
2021/11/24 20:59:52;;;;;;;;;;;1.60;99.90;;;;;;8454488;28;19989;-65
2021/11/24 21:03:54;;;;;;;;;;;1.60;99.90;;;;;;8440608;28;19931;-65
2021/11/24 21:07:54;;;;;;;;;;;1.70;99.90;;;;;;8422124;28;20327;-65
2021/11/24 21:11:55;;;;;;;;;;;1.60;99.90;;;;;;8422262;28;19920;-66
2021/11/24 21:15:55;;;;;;;;;;;1.60;99.90;;;;;;8421716;28;20297;-66
2021/11/24 21:19:56;;;;;;;;;;;1.60;99.90;;;;;;8412100;28;19940;-66
2021/11/24 21:23:56;;;;;;;;;;;1.60;99.90;;;;;;8418542;28;19915;-66
2021/11/24 21:27:58;;;;;;;;;;;1.50;99.90;;;;;;8400758;28;19912;-66
2021/11/24 21:31:59;;;;;;;;;;;1.50;99.90;;;;;;8422488;28;19927;-65
2021/11/24 21:36:01;;;;;;;;;;;1.80;99.90;;;;;;8423419;28;20289;-65
2021/11/24 21:40:06;;;;;;;;;;;1.60;99.90;;;;;;8424115;28;20393;-66
2021/11/24 21:44:06;;;;;;;;;;;1.50;99.90;;;;;;8423844;28;20330;-66
2021/11/24 21:48:07;;;;;;;;;;;1.60;99.90;;;;;;8423641;28;19966;-66
2021/11/24 21:52:08;;;;;;;;;;;1.60;99.90;;;;;;8422906;28;19913;-65
2021/11/24 21:56:08;;;;;;;;;;;1.70;99.90;;;;;;8466631;22;19986;-64
2021/11/24 22:00:10;;;;;;;;;;;1.60;99.90;;;;;;8408217;28;20497;-64
2021/11/24 22:04:10;;;;;;;;;;;1.50;99.90;;;;;;8411107;28;20328;-64
2021/11/24 22:12:31;;;;;;;;;;;1.50;99.90;;;;;;8408505;28;20019;-64
2021/11/24 22:16:32;;;;;;;;;;;1.40;99.90;;;;;;8393931;28;19914;-65
2021/11/24 22:20:33;;;;;;;;;;;1.20;99.90;;;;;;8375820;28;19912;-65
2021/11/24 22:24:35;;;;;;;;;;;1.30;99.90;;;;;;8399524;28;19999;-65
2021/11/24 22:28:36;;;;;;;;;;;1.40;99.90;;;;;;8418154;28;19919;-64
2021/11/24 22:32:37;;;;;;;;;;;1.30;99.90;;;;;;8426478;28;19908;-64
2021/11/24 22:36:37;;;;;;;;;;;1.20;99.90;;;;;;8426903;28;19908;-64
2021/11/24 22:40:38;;;;;;;;;;;1.30;99.90;;;;;;8408554;28;20347;-65
2021/11/24 22:44:39;;;;;;;;;;;1.30;99.90;;;;;;8407602;28;19953;-64
2021/11/24 22:48:39;;;;;;;;;;;1.40;99.90;;;;;;8420194;28;20450;-64
2021/11/24 22:52:40;;;;;;;;;;;1.30;99.90;;;;;;8425864;28;19991;-64
2021/11/24 22:56:42;;;;;;;;;;;1.20;99.90;;;;;;8413180;28;19916;-65
2021/11/24 23:00:43;;;;;;;;;;;1.20;99.90;;;;;;8392713;28;20285;-64
2021/11/24 23:04:43;;;;;;;;;;;1.20;99.90;;;;;;8397338;28;20025;-64
2021/11/24 23:08:44;;;;;;;;;;;1.10;99.90;;;;;;8399371;28;19913;-64
2021/11/24 23:12:44;;;;;;;;;;;1.30;99.90;;;;;;8381091;28;20345;-65
2021/11/24 23:16:45;;;;;;;;;;;1.20;99.90;;;;;;8399262;28;19909;-65
2021/11/24 23:20:46;;;;;;;;;;;1.20;99.90;;;;;;8381147;28;19909;-65
2021/11/24 23:24:47;;;;;;;;;;;1.30;99.90;;;;;;8388836;28;19919;-65
2021/11/24 23:28:47;;;;;;;;;;;1.20;99.90;;;;;;8423497;28;19912;-65
2021/11/24 23:32:48;;;;;;;;;;;1.20;99.90;;;;;;8431951;28;19908;-65
2021/11/24 23:36:49;;;;;;;;;;;1.20;99.90;;;;;;8432264;28;20689;-66
2021/11/24 23:40:50;;;;;;;;;;;1.10;99.90;;;;;;8431947;28;19909;-66
2021/11/24 23:44:50;;;;;;;;;;;0.90;99.90;;;;;;8431196;28;19930;-65
2021/11/24 23:48:51;;;;;;;;;;;1.10;99.90;;;;;;8431646;28;19912;-65
2021/11/24 23:52:52;;;;;;;;;;;1.20;99.90;;;;;;8431463;28;19912;-65
2021/11/24 23:56:52;;;;;;;;;;;1.20;99.90;;;;;;8422244;28;19927;-65
